Time;durP1;ratioP1;P1;durP2;ratioP2;P2;SDS_P1;SDS_P2;PMS_P1;PMS_P2;Temp;Humidity;BMP_temperature;BMP_pressure;BME280_temperature;BME280_humidity;BME280_pressure;Samples;Min_cycle;Max_cycle;Signal;HPM_P1;HPM_P2
2022/06/05 00:04:48;;;;;;;19.58;5.93;;;;;;;19.71;60.76;99657.22;10415436;28;20044;-73
2022/06/05 00:10:25;;;;;;;14.60;4.78;;;;;;;20.35;62.36;99756.66;10414886;28;20584;-74
2022/06/05 00:15:27;;;;;;;14.50;4.65;;;;;;;19.34;61.21;99628.03;10420203;28;20055;-73
2022/06/05 00:20:28;;;;;;;11.85;4.13;;;;;;;19.73;61.46;99688.25;10413048;28;20045;-73
2022/06/05 00:26:20;;;;;;;24.92;5.65;;;;;;;19.87;63.87;99723.00;10415530;28;20064;-73
2022/06/05 00:31:43;;;;;;;19.95;4.38;;;;;;;19.81;63.23;99719.38;10411769;28;20057;-72
2022/06/05 00:36:56;;;;;;;15.40;3.70;;;;;;;19.10;62.35;99608.50;10385555;28;20096;-73
2022/06/05 00:41:59;;;;;;;14.55;3.92;;;;;;;19.18;63.03;99601.91;10403898;28;20219;-73
2022/06/05 00:47:00;;;;;;;27.40;3.97;;;;;;;19.70;62.42;99694.13;10413326;28;20044;-73
2022/06/05 00:52:02;;;;;;;15.07;3.30;;;;;;;19.64;63.21;99667.31;10377499;28;20053;-74
2022/06/05 00:57:08;;;;;;;24.42;3.75;;;;;;;19.75;64.64;99666.47;10372407;28;20045;-73
2022/06/05 01:02:11;;;;;;;18.50;3.70;;;;;;;19.54;64.75;99649.94;10373248;28;20049;-74
2022/06/05 01:07:12;;;;;;;24.17;4.07;;;;;;;19.44;64.98;99673.16;10373017;28;20042;-73
2022/06/05 01:12:54;;;;;;;12.35;3.22;;;;;;;19.52;66.99;99670.91;10372914;28;20612;-74
2022/06/05 01:18:00;;;;;;;15.48;3.90;;;;;;;19.53;65.29;99671.72;10321729;28;20053;-73
2022/06/05 01:23:23;;;;;;;10.07;3.17;;;;;;;19.57;67.85;99673.69;10372291;28;20050;-73
2022/06/05 01:28:29;;;;;;;15.80;3.33;;;;;;;19.38;67.00;99656.94;10372206;28;20080;-73
2022/06/05 01:33:32;;;;;;;17.40;3.92;;;;;;;19.34;67.18;99663.03;10376662;28;20046;-73
2022/06/05 01:38:52;;;;;;;24.08;4.18;;;;;;;18.48;69.72;99526.59;10380252;28;20125;-73
2022/06/05 01:43:56;;;;;;;21.77;3.70;;;;;;;19.12;67.63;99647.56;10379357;28;20041;-73
2022/06/05 01:49:05;;;;;;;12.23;3.17;;;;;;;19.26;69.96;99685.78;10379060;28;20080;-72
2022/06/05 01:54:22;;;;;;;20.10;3.47;;;;;;;19.06;72.44;99674.66;10378953;28;20046;-73
2022/06/05 01:59:34;;;;;;;22.73;4.03;;;;;;;18.93;72.12;99675.72;10379924;28;20041;-73
2022/06/05 02:04:43;;;;;;;20.83;3.72;;;;;;;18.87;72.24;99660.53;10379205;28;20374;-73
2022/06/05 02:10:09;;;;;;;24.95;3.75;;;;;;;19.03;72.78;99684.00;10379346;28;20066;-72
2022/06/05 02:15:11;;;;;;;15.93;3.38;;;;;;;18.74;70.10;99607.00;10373949;28;20053;-73
2022/06/05 02:20:12;;;;;;;21.20;3.85;;;;;;;19.12;70.43;99654.84;10378846;28;20107;-72
2022/06/05 02:25:16;;;;;;;18.48;4.30;;;;;;;18.54;70.50;99522.13;10378891;28;20405;-73
2022/06/05 02:30:17;;;;;;;22.95;4.40;;;;;;;19.44;70.00;99660.50;10377551;28;20053;-73
2022/06/05 02:35:42;;;;;;;16.52;4.15;;;;;;;19.16;71.93;99604.81;10377564;28;20425;-73
2022/06/05 02:41:24;;;;;;;21.67;4.32;;;;;;;19.72;71.82;99681.25;10377692;28;20038;-74
2022/06/05 02:46:29;;;;;;;12.93;3.05;;;;;;;19.68;70.80;99661.22;10377528;28;20449;-73
2022/06/05 02:51:36;;;;;;;22.67;4.28;;;;;;;19.76;71.04;99662.69;10376898;28;20046;-74
2022/06/05 02:56:37;;;;;;;16.42;3.28;;;;;;;19.73;70.29;99668.56;10377158;28;20045;-73
2022/06/05 03:06:57;;;;;;;17.85;4.07;;;;;;;20.06;69.98;99647.00;10376828;28;20037;-74
2022/06/05 03:11:58;;;;;;;13.43;3.45;;;;;;;20.21;69.06;99610.53;10376726;28;20068;-74
2022/06/05 03:16:59;;;;;;;21.33;4.75;;;;;;;20.50;68.84;99660.56;10376216;28;20053;-74
2022/06/05 03:21:59;;;;;;;16.17;3.88;;;;;;;20.44;69.19;99666.94;10375569;28;20037;-73
2022/06/05 03:27:00;;;;;;;15.15;3.35;;;;;;;20.40;69.36;99668.53;10375926;28;20053;-74
2022/06/05 03:32:01;;;;;;;28.67;4.05;;;;;;;20.46;68.91;99672.91;10375883;28;20042;-74
2022/06/05 03:37:04;;;;;;;19.65;3.85;;;;;;;20.52;68.76;99661.16;10375708;28;20060;-74
2022/06/05 03:42:06;;;;;;;19.05;3.70;;;;;;;20.60;68.70;99646.41;10375341;28;20044;-74
2022/06/05 03:47:09;;;;;;;21.35;3.83;;;;;;;21.11;67.47;99640.75;10374505;28;20121;-74
2022/06/05 03:52:10;;;;;;;18.52;3.38;;;;;;;21.88;65.18;99642.28;10375015;28;20053;-74
2022/06/05 03:57:11;;;;;;;14.95;3.75;;;;;;;22.65;63.34;99665.22;10374126;28;20042;-75
2022/06/05 04:02:12;;;;;;;31.52;5.13;;;;;;;22.95;61.83;99625.81;10374270;28;20413;-74
2022/06/05 04:07:13;;;;;;;18.25;5.38;;;;;;;23.41;59.91;99615.03;10373858;28;20038;-76
2022/06/05 04:12:14;;;;;;;17.23;5.53;;;;;;;23.57;59.08;99605.84;10374339;28;20061;-75
2022/06/05 04:17:14;;;;;;;26.77;5.45;;;;;;;23.60;59.93;99570.06;10373673;28;20042;-74
2022/06/05 04:22:15;;;;;;;20.42;5.25;;;;;;;24.34;59.83;99681.72;10373786;28;20065;-73
2022/06/05 04:27:16;;;;;;;12.27;4.20;;;;;;;24.19;58.43;99617.41;10373627;28;20072;-73
2022/06/05 04:32:17;;;;;;;19.25;5.25;;;;;;;24.81;57.76;99692.19;10379266;28;20049;-75
2022/06/05 04:37:17;;;;;;;16.25;4.80;;;;;;;24.80;57.88;99622.66;10373202;28;20046;-74
2022/06/05 04:42:18;;;;;;;32.10;5.35;;;;;;;25.81;56.85;99690.22;10373264;28;20053;-75
2022/06/05 04:47:19;;;;;;;28.20;4.85;;;;;;;25.68;55.57;99590.25;10399693;28;20029;-74
2022/06/05 04:52:19;;;;;;;15.18;3.85;;;;;;;26.18;54.59;99599.03;10393603;28;20110;-73
2022/06/05 04:57:20;;;;;;;17.67;3.55;;;;;;;26.82;53.58;99673.97;10413328;28;20034;-74
2022/06/05 05:02:21;;;;;;;13.43;3.42;;;;;;;27.00;52.95;99709.72;10413775;28;20037;-77
2022/06/05 05:07:22;;;;;;;12.73;3.22;;;;;;;26.64;53.17;99710.97;10412740;28;20033;-77
2022/06/05 05:12:23;;;;;;;19.30;3.85;;;;;;;26.68;52.75;99703.03;10412995;28;20061;-75
2022/06/05 05:17:24;;;;;;;16.48;3.70;;;;;;;26.58;52.57;99676.72;10412495;28;20409;-76
2022/06/05 05:22:25;;;;;;;12.48;3.80;;;;;;;26.67;52.68;99692.44;10412421;28;20132;-73
2022/06/05 05:27:26;;;;;;;37.05;4.47;;;;;;;26.82;52.98;99717.56;10414142;28;20156;-75
2022/06/05 05:32:26;;;;;;;16.52;3.70;;;;;;;26.91;52.13;99708.75;10409381;28;20075;-74
2022/06/05 05:37:27;;;;;;;17.80;3.65;;;;;;;26.93;52.52;99699.19;10400204;28;20056;-74
2022/06/05 05:42:30;;;;;;;18.48;3.55;;;;;;;26.64;51.90;99618.34;10373707;28;20417;-74
2022/06/05 05:47:32;;;;;;;19.27;3.55;;;;;;;27.24;51.73;99698.81;10374654;28;20512;-73
2022/06/05 05:52:33;;;;;;;17.40;3.35;;;;;;;27.49;51.68;99703.06;10427499;28;20047;-74
2022/06/05 05:57:34;;;;;;;12.18;3.22;;;;;;;27.61;51.21;99697.16;10411833;28;20085;-73
2022/06/05 06:02:35;;;;;;;15.23;3.65;;;;;;;26.98;50.91;99630.16;10394695;28;20120;-74
2022/06/05 06:07:37;;;;;;;13.35;3.50;;;;;;;27.38;50.78;99705.16;10411921;28;20049;-76
2022/06/05 06:12:37;;;;;;;27.10;4.35;;;;;;;27.29;51.45;99685.91;10412333;28;20067;-74
2022/06/05 06:17:38;;;;;;;20.20;3.67;;;;;;;27.46;50.03;99701.78;10413630;28;20424;-74
2022/06/05 06:22:41;;;;;;;16.65;3.67;;;;;;;26.49;50.43;99522.38;10410863;28;20409;-72
2022/06/05 06:27:41;;;;;;;15.97;3.37;;;;;;;27.53;50.36;99717.75;10385864;28;20046;-74
2022/06/05 06:32:42;;;;;;;16.00;3.80;;;;;;;27.46;50.21;99669.03;10399042;28;20045;-74
2022/06/05 06:37:43;;;;;;;16.42;3.60;;;;;;;26.90;49.76;99551.81;10419228;28;20110;-75
2022/06/05 06:42:43;;;;;;;20.17;3.78;;;;;;;27.48;49.49;99620.44;10418377;28;20038;-73
2022/06/05 06:47:44;;;;;;;17.55;4.50;;;;;;;28.25;49.30;99722.06;10393199;28;20089;-73
2022/06/05 06:52:45;;;;;;;17.88;3.80;;;;;;;28.18;48.81;99706.06;10407326;28;20860;-74
2022/06/05 06:57:46;;;;;;;28.73;6.78;;;;;;;28.18;49.14;99723.28;10394830;28;20541;-73
2022/06/05 07:02:47;;;;;;;46.58;8.98;;;;;;;28.02;49.44;99712.91;10414378;28;20049;-75
2022/06/05 07:07:48;;;;;;;14.60;4.18;;;;;;;27.73;49.67;99683.88;10393236;28;20033;-73
2022/06/05 07:12:49;;;;;;;21.05;4.53;;;;;;;27.84;49.22;99706.38;10406503;28;20061;-73
2022/06/05 07:17:49;;;;;;;89.55;14.73;;;;;;;28.07;49.10;99727.28;10417273;28;20064;-73
2022/06/05 07:22:50;;;;;;;16.83;4.72;;;;;;;28.11;48.66;99722.84;10417166;28;20128;-74
2022/06/05 07:27:51;;;;;;;13.77;5.50;;;;;;;28.35;49.08;99719.94;10416684;28;20148;-74
2022/06/05 07:32:53;;;;;;;16.52;5.63;;;;;;;28.15;48.26;99669.25;10416497;28;20053;-74
2022/06/05 07:37:53;;;;;;;17.42;5.22;;;;;;;28.82;47.69;99728.13;10415989;28;20038;-72
2022/06/05 07:42:54;;;;;;;18.02;5.38;;;;;;;29.02;46.61;99694.13;10415861;28;20485;-73
2022/06/05 07:47:55;;;;;;;18.33;5.25;;;;;;;29.41;45.99;99715.38;10411329;28;20041;-74
2022/06/05 07:58:15;;;;;;;14.27;3.92;;;;;;;29.72;44.60;99679.91;10414440;28;20069;-74
2022/06/05 08:03:15;;;;;;;18.73;4.00;;;;;;;29.77;44.12;99698.94;10390398;28;20480;-72
2022/06/05 08:08:16;;;;;;;39.67;6.05;;;;;;;30.13;44.25;99703.53;10410538;28;20037;-72
2022/06/05 08:13:17;;;;;;;17.20;4.53;;;;;;;30.50;43.07;99701.47;10407665;28;20076;-75
2022/06/05 08:18:18;;;;;;;12.63;3.60;;;;;;;30.68;43.31;99702.31;10386850;28;20149;-72
2022/06/05 08:23:18;;;;;;;14.57;3.85;;;;;;;30.92;42.18;99691.75;10397030;28;20084;-74
2022/06/05 08:28:19;;;;;;;19.17;4.55;;;;;;;30.40;40.70;99581.19;10408759;28;20048;-72
2022/06/05 08:33:20;;;;;;;16.20;4.15;;;;;;;30.61;41.43;99601.38;10430292;28;20075;-73
2022/06/05 08:43:46;;;;;;;13.77;3.30;;;;;;;31.45;40.50;99667.97;10454970;28;20037;-74
2022/06/05 08:48:57;;;;;;;24.30;3.97;;;;;;;31.77;40.72;99674.88;10453985;28;20052;-74
2022/06/05 08:54:03;;;;;;;13.05;3.40;;;;;;;31.16;39.73;99562.38;10454768;28;20041;-76
2022/06/05 08:59:31;;;;;;;14.00;3.42;;;;;;;31.67;39.30;99671.66;10454101;28;20404;-75
2022/06/05 09:04:57;;;;;;;10.95;3.45;;;;;;;31.46;38.96;99655.03;10453513;28;20446;-73
2022/06/05 09:10:13;;;;;;;14.00;3.30;;;;;;;31.27;39.32;99650.66;10454655;28;20056;-74
2022/06/05 09:15:21;;;;;;;10.88;3.10;;;;;;;31.41;40.07;99650.53;10440384;28;20099;-76
2022/06/05 09:20:46;;;;;;;19.75;3.67;;;;;;;30.93;39.53;99550.78;10414141;28;20405;-74
2022/06/05 09:25:52;;;;;;;16.83;3.40;;;;;;;31.45;40.24;99646.00;10412204;28;20037;-75
2022/06/05 09:31:31;;;;;;;10.35;3.40;;;;;;;31.61;39.62;99644.34;10411924;28;20041;-78
2022/06/05 09:36:32;;;;;;;16.63;3.88;;;;;;;31.47;40.00;99615.47;10411054;28;20045;-78
2022/06/05 09:42:03;;;;;;;17.70;3.55;;;;;;;32.02;38.96;99639.44;10412395;28;20092;-77
2022/06/05 09:47:16;;;;;;;12.52;3.53;;;;;;;32.18;38.50;99623.22;10412073;28;20136;-77
2022/06/05 09:52:21;;;;;;;10.95;3.53;;;;;;;32.42;37.95;99626.16;10413912;28;20042;-78
2022/06/05 10:03:01;;;;;;;14.52;3.05;;;;;;;32.43;37.55;99616.00;10419425;28;20128;-77
2022/06/05 10:08:13;;;;;;;12.85;3.53;;;;;;;32.49;39.07;99599.00;10419918;28;20037;-76
2022/06/05 10:13:23;;;;;;;11.70;3.55;;;;;;;32.54;37.40;99595.25;10418743;28;20057;-78
2022/06/05 10:18:33;;;;;;;30.02;4.07;;;;;;;32.53;39.34;99579.91;10419704;28;20501;-78
2022/06/05 10:23:57;;;;;;;15.25;3.50;;;;;;;32.60;37.82;99598.59;10419246;28;20129;-78
2022/06/05 10:29:21;;;;;;;11.32;3.30;;;;;;;31.96;38.72;99552.88;10418799;28;20565;-77
2022/06/05 10:34:45;;;;;;;11.20;3.55;;;;;;;31.59;39.45;99520.34;10419423;28;20442;-77
2022/06/05 10:40:04;;;;;;;13.93;3.72;;;;;;;32.10;39.23;99588.34;10417898;28;20041;-78
2022/06/05 10:45:04;;;;;;;62.72;15.15;;;;;;;32.51;37.70;99596.72;10419075;28;20094;-78
2022/06/05 10:50:05;;;;;;;14.25;3.63;;;;;;;32.92;37.02;99583.34;10417604;28;20094;-76
2022/06/05 10:55:18;;;;;;;20.27;4.05;;;;;;;33.21;35.93;99587.16;10416107;28;20081;-78
2022/06/05 11:00:24;;;;;;;142.55;24.58;;;;;;;33.49;36.25;99571.66;10417575;28;20052;-78
2022/06/05 11:05:43;;;;;;;19.52;4.47;;;;;;;33.51;35.08;99577.66;10418011;28;20049;-76
2022/06/05 11:16:56;;;;;;;32.50;4.60;;;;;;;33.56;35.91;99565.59;10410669;28;20044;-76
2022/06/05 11:22:01;;;;;;;15.80;3.50;;;;;;;33.19;34.13;99548.97;10411277;28;20382;-76
2022/06/05 11:27:16;;;;;;;12.80;3.53;;;;;;;32.77;34.99;99524.22;10403789;28;20049;-76
2022/06/05 11:32:58;;;;;;;18.80;3.03;;;;;;;32.85;36.04;99566.56;10390312;28;20052;-77
2022/06/05 11:38:10;;;;;;;34.20;5.80;;;;;;;32.19;36.51;99491.00;10393506;28;20045;-76
2022/06/05 11:43:17;;;;;;;12.05;3.15;;;;;;;32.60;36.66;99569.16;10391184;28;20046;-76
2022/06/05 11:48:18;;;;;;;9.10;3.40;;;;;;;32.64;37.03;99583.06;10405037;28;20045;-76
2022/06/05 11:53:32;;;;;;;15.02;3.28;;;;;;;32.67;36.91;99583.19;10409383;28;20052;-75
2022/06/05 11:58:54;;;;;;;21.75;3.75;;;;;;;32.61;37.39;99551.53;10411714;28;20128;-75
2022/06/05 12:04:05;;;;;;;;;;;;;;;32.88;37.12;99569.44;10428647;28;20045;-75
2022/06/05 12:09:16;;;;;;;214.85;27.35;;;;;;;32.38;37.99;99542.75;10415689;28;20404;-75
2022/06/05 12:14:24;;;;;;;13.80;4.10;;;;;;;32.38;38.84;99547.47;10414483;28;20511;-76
2022/06/05 12:19:54;;;;;;;13.82;3.53;;;;;;;32.03;39.67;99498.19;10415500;28;20048;-75
2022/06/05 12:25:12;;;;;;;18.40;3.33;;;;;;;32.00;41.61;99507.09;10414821;28;20116;-75
2022/06/05 12:30:23;;;;;;;15.55;3.72;;;;;;;32.32;40.83;99573.53;10412676;28;20041;-75
2022/06/05 12:35:32;;;;;;;13.50;3.65;;;;;;;32.36;40.57;99589.00;10414036;28;20044;-76
2022/06/05 12:40:43;;;;;;;13.90;3.65;;;;;;;32.15;41.22;99566.97;10414159;28;20041;-76
2022/06/05 12:45:47;;;;;;;15.02;3.78;;;;;;;32.19;41.49;99589.09;10414647;28;20527;-74
2022/06/05 12:51:12;;;;;;;17.80;4.20;;;;;;;31.61;42.47;99492.56;10413201;28;20111;-75
2022/06/05 12:56:38;;;;;;;19.20;4.03;;;;;;;32.19;42.02;99584.44;10414375;28;20120;-75
2022/06/05 13:01:50;;;;;;;18.35;4.60;;;;;;;31.41;40.51;99468.56;10413425;28;20080;-76
2022/06/05 13:07:16;;;;;;;14.60;4.20;;;;;;;31.65;42.80;99528.38;10412965;28;20042;-77
2022/06/05 13:12:29;;;;;;;56.85;6.60;;;;;;;31.94;42.33;99582.59;10421272;28;20061;-76
2022/06/05 13:17:49;;;;;;;15.32;3.70;;;;;;;31.61;40.83;99542.78;10444142;28;20175;-78
2022/06/05 13:23:03;;;;;;;14.57;3.75;;;;;;;30.98;42.37;99453.00;10453554;28;20041;-77
2022/06/05 13:28:25;;;;;;;27.65;4.38;;;;;;;31.59;41.94;99571.69;10458857;28;20033;-78
2022/06/05 13:33:38;;;;;;;14.20;3.53;;;;;;;31.31;41.32;99555.56;10462545;28;20482;-77
2022/06/05 13:39:19;;;;;;;16.50;3.65;;;;;;;30.76;40.23;99478.66;10441926;28;20050;-75
2022/06/05 13:44:23;;;;;;;15.43;3.45;;;;;;;31.14;40.02;99563.81;10412542;28;20045;-74
2022/06/05 13:49:33;;;;;;;11.20;2.92;;;;;;;31.05;39.51;99574.00;10405310;28;20072;-74
2022/06/05 13:55:03;;;;;;;12.80;3.03;;;;;;;31.00;38.99;99561.28;10418351;28;20050;-75
2022/06/05 14:00:22;;;;;;;19.98;3.38;;;;;;;30.43;39.53;99488.16;10364152;28;20409;-74
2022/06/05 14:05:33;;;;;;;12.73;3.17;;;;;;;30.82;39.35;99565.94;10379584;28;20042;-76
2022/06/05 14:10:52;;;;;;;14.38;3.45;;;;;;;30.80;40.59;99565.44;10411508;28;20541;-74
2022/06/05 14:15:59;;;;;;;12.95;3.20;;;;;;;30.69;40.87;99573.19;10433777;28;20052;-77
2022/06/05 14:21:01;;;;;;;18.88;4.40;;;;;;;30.16;41.09;99508.41;10407357;28;20041;-73
2022/06/05 14:26:04;;;;;;;20.65;3.60;;;;;;;30.49;41.50;99573.78;10418877;28;20440;-76
2022/06/05 14:31:20;;;;;;;17.58;3.60;;;;;;;30.31;42.17;99550.22;10377674;28;20068;-74
2022/06/05 14:36:50;;;;;;;13.80;4.30;;;;;;;30.43;42.61;99594.25;10377710;28;20038;-75
2022/06/05 14:42:15;;;;;;;34.25;5.22;;;;;;;30.26;43.16;99592.25;10418371;28;20485;-74
2022/06/05 14:47:21;;;;;;;29.58;4.85;;;;;;;29.94;43.95;99585.16;10403870;28;20046;-77
2022/06/05 14:52:40;;;;;;;15.35;4.22;;;;;;;29.85;44.37;99590.59;10413464;28;20077;-76
2022/06/05 14:58:02;;;;;;;186.82;16.45;;;;;;;29.23;44.53;99501.06;10404668;28;20073;-81
2022/06/05 15:03:23;;;;;;;20.95;4.65;;;;;;;29.10;44.61;99497.28;10396531;28;20037;-78
2022/06/05 15:08:34;;;;;;;80.57;8.33;;;;;;;28.91;44.60;99499.38;10394033;28;20042;-77
2022/06/05 15:13:44;;;;;;;15.15;3.83;;;;;;;29.32;43.68;99597.69;10392400;28;20061;-77
2022/06/05 15:18:46;;;;;;;17.70;3.95;;;;;;;28.88;43.15;99539.06;10394002;28;20404;-77
2022/06/05 15:23:51;;;;;;;14.55;3.47;;;;;;;28.92;42.55;99568.53;10400951;28;20520;-79
2022/06/05 15:29:10;;;;;;;13.55;3.00;;;;;;;28.88;42.44;99576.53;10409799;28;20515;-76
2022/06/05 15:34:29;;;;;;;12.40;3.40;;;;;;;28.70;43.06;99572.03;10417106;28;20049;-81
2022/06/05 15:39:40;;;;;;;14.38;3.63;;;;;;;28.19;43.46;99522.00;10416622;28;20045;-77
2022/06/05 15:45:18;;;;;;;12.02;3.88;;;;;;;28.45;43.48;99563.28;10412711;28;20041;-77
2022/06/05 15:50:34;;;;;;;13.30;3.50;;;;;;;28.29;43.97;99559.22;10414274;28;20045;-76
2022/06/05 15:56:03;;;;;;;32.42;4.10;;;;;;;27.48;45.29;99453.22;10422942;28;20033;-76
2022/06/05 16:01:12;;;;;;;12.55;3.42;;;;;;;27.94;44.90;99556.91;10407226;28;20041;-77
2022/06/05 16:06:19;;;;;;;46.97;7.30;;;;;;;27.70;47.83;99565.22;10410982;28;20038;-77
2022/06/05 16:11:31;;;;;;;86.05;7.60;;;;;;;27.47;49.01;99550.63;10408087;28;20053;-77
2022/06/05 16:16:58;;;;;;;64.88;7.68;;;;;;;27.35;49.77;99569.38;10409597;28;20148;-77
2022/06/05 16:22:15;;;;;;;48.95;9.18;;;;;;;26.81;49.88;99522.50;10384340;28;20136;-77
2022/06/05 16:27:15;;;;;;;38.22;7.78;;;;;;;26.88;50.12;99564.91;10404439;28;20041;-77
2022/06/05 16:32:35;;;;;;;32.88;18.77;;;;;;;26.74;50.83;99581.19;10401291;28;20501;-79
2022/06/05 16:37:53;;;;;;;40.95;12.57;;;;;;;26.47;50.69;99568.16;10396972;28;20079;-80
2022/06/05 16:43:06;;;;;;;37.80;6.75;;;;;;;26.37;49.77;99574.56;10401549;28;20095;-81
2022/06/05 16:48:11;;;;;;;17.87;4.60;;;;;;;26.30;49.70;99604.88;10398255;28;20037;-78
2022/06/05 16:53:24;;;;;;;15.70;4.50;;;;;;;25.46;49.73;99461.00;10400793;28;20084;-76
2022/06/05 16:58:30;;;;;;;18.67;4.13;;;;;;;26.12;49.25;99584.66;10391768;28;20072;-78
2022/06/05 17:03:40;;;;;;;9.52;3.45;;;;;;;25.37;48.78;99484.50;10428280;28;20046;-77
2022/06/05 17:09:00;;;;;;;13.75;4.43;;;;;;;25.65;49.96;99563.63;10412480;28;20076;-76
2022/06/05 17:14:07;;;;;;;13.87;3.80;;;;;;;25.57;50.07;99566.94;10428150;28;20057;-76
2022/06/05 17:19:31;;;;;;;15.55;4.13;;;;;;;25.64;51.31;99597.38;10412647;28;20417;-77
2022/06/05 17:24:57;;;;;;;16.45;4.57;;;;;;;25.49;52.24;99574.63;10412423;28;20067;-83
2022/06/05 17:30:00;;;;;;;18.75;5.85;;;;;;;25.32;52.44;99573.44;10412564;28;20118;-83
2022/06/05 17:35:34;;;;;;;18.80;5.10;;;;;;;25.24;53.01;99567.50;10412833;28;20052;-81
2022/06/05 17:40:56;;;;;;;17.42;5.78;;;;;;;24.92;53.50;99573.41;10408640;28;20042;-81
2022/06/05 17:46:24;;;;;;;48.30;24.85;;;;;;;24.19;53.83;99459.22;10380472;28;20042;-80
2022/06/05 17:51:43;;;;;;;108.32;57.53;;;;;;;24.49;53.88;99516.06;10369853;28;20046;-80
2022/06/05 17:56:50;;;;;;;99.38;55.17;;;;;;;24.27;56.01;99507.50;10371764;28;20046;-81
2022/06/05 18:01:51;;;;;;;56.25;28.52;;;;;;;24.17;55.07;99493.97;10371647;28;20056;-81
2022/06/05 18:06:52;;;;;;;34.67;16.83;;;;;;;24.20;55.44;99529.50;10371943;28;20038;-81
2022/06/05 18:12:02;;;;;;;32.63;14.10;;;;;;;24.06;56.43;99545.56;10370843;28;20057;-81
2022/06/05 18:17:15;;;;;;;29.27;11.63;;;;;;;23.88;57.32;99513.63;10377538;28;20108;-83
2022/06/05 18:22:31;;;;;;;25.15;9.45;;;;;;;23.88;57.55;99540.75;10379351;28;20046;-82
2022/06/05 18:27:35;;;;;;;14.43;7.65;;;;;;;23.84;57.05;99528.78;10407704;28;20045;-79
2022/06/05 18:32:53;;;;;;;22.70;6.40;;;;;;;23.43;56.36;99450.25;10396705;28;20046;-82
2022/06/05 18:43:26;;;;;;;20.00;5.35;;;;;;;22.96;55.41;99368.25;10407313;28;20044;-80
2022/06/05 18:48:30;;;;;;;18.60;5.53;;;;;;;24.03;55.23;99545.31;10398707;28;20037;-79
2022/06/05 18:53:37;;;;;;;13.82;5.05;;;;;;;23.96;55.67;99540.19;10398151;28;20520;-81
2022/06/05 18:58:41;;;;;;;25.42;5.88;;;;;;;23.67;55.92;99529.91;10395662;28;20058;-78
2022/06/05 19:03:42;;;;;;;17.10;5.90;;;;;;;23.43;55.98;99508.00;10389126;28;20053;-79
2022/06/05 19:08:42;;;;;;;19.85;5.55;;;;;;;23.30;55.95;99510.44;10411081;28;20041;-81
2022/06/05 19:13:52;;;;;;;14.43;5.47;;;;;;;23.18;56.99;99510.69;10409844;28;20417;-82
2022/06/05 19:19:00;;;;;;;17.35;7.38;;;;;;;22.89;57.57;99518.53;10416847;28;20045;-80
2022/06/05 19:24:13;;;;;;;44.88;22.40;;;;;;;22.85;58.77;99530.97;10412374;28;20382;-82
2022/06/05 19:29:19;;;;;;;32.05;17.60;;;;;;;22.75;58.41;99542.59;10416980;28;20053;-82
2022/06/05 19:34:24;;;;;;;45.15;16.83;;;;;;;22.64;60.18;99544.47;10415491;28;20038;-78
2022/06/05 19:39:46;;;;;;;26.98;11.70;;;;;;;22.03;61.58;99447.66;10416413;28;20057;-81
2022/06/05 19:44:48;;;;;;;19.20;8.73;;;;;;;21.89;61.29;99460.03;10416268;28;20044;-81
2022/06/05 19:49:50;;;;;;;19.10;7.47;;;;;;;21.55;61.06;99414.50;10414290;28;20140;-81
2022/06/05 19:54:52;;;;;;;23.52;7.53;;;;;;;22.32;61.75;99537.34;10415669;28;20041;-81
2022/06/05 20:00:25;;;;;;;169.77;46.30;;;;;;;22.33;62.70;99538.97;10415778;28;20095;-82
2022/06/05 20:05:27;;;;;;;;;;;;;;;22.43;60.47;99540.06;10415690;28;20092;-78
2022/06/05 20:10:53;;;;;;;51.63;18.08;;;;;;;22.07;63.11;99535.28;10415418;28;19979;-81
2022/06/05 20:15:57;;;;;;;36.30;12.98;;;;;;;21.99;62.72;99524.19;10411191;28;20465;-78
2022/06/05 20:21:09;;;;;;;23.80;9.90;;;;;;;21.93;63.80;99514.41;10414815;28;20053;-78
2022/06/05 20:26:15;;;;;;;19.23;7.83;;;;;;;21.81;62.89;99518.16;10414284;28;20053;-77
2022/06/05 20:31:19;;;;;;;19.58;9.25;;;;;;;21.55;65.10;99527.19;10414026;28;20068;-78
2022/06/05 20:36:20;;;;;;;;;;;;;;;21.65;62.73;99525.34;10413881;28;20121;-76
2022/06/05 20:41:34;;;;;;;20.15;8.27;;;;;;;21.26;65.86;99507.75;10414370;28;19987;-78
2022/06/05 20:46:48;;;;;;;19.42;9.27;;;;;;;21.12;66.03;99497.41;10413493;28;20041;-78
2022/06/05 20:51:50;;;;;;;18.48;8.60;;;;;;;21.14;65.18;99510.63;10385123;28;20038;-78
2022/06/05 20:56:55;;;;;;;26.67;9.50;;;;;;;21.13;66.57;99526.03;10405803;28;20056;-78
2022/06/05 21:02:04;;;;;;;18.23;8.10;;;;;;;21.03;67.87;99506.19;10414097;28;20079;-79
2022/06/05 21:07:16;;;;;;;20.73;7.53;;;;;;;20.95;65.27;99484.00;10377922;28;20456;-78
2022/06/05 21:17:39;;;;;;;18.98;6.00;;;;;;;20.92;64.32;99495.31;10372458;28;20041;-78
2022/06/05 21:22:42;;;;;;;18.63;6.22;;;;;;;20.82;64.09;99473.66;10371897;28;20519;-77
2022/06/05 21:27:46;;;;;;;14.18;5.50;;;;;;;20.97;64.67;99495.38;10371633;28;20099;-77
2022/06/05 21:32:48;;;;;;;;;;;;;;;21.26;63.25;99505.84;10372696;28;20387;-75
2022/06/05 21:38:07;;;;;;;11.05;4.88;;;;;;;21.12;64.45;99502.78;10372137;28;20388;-78
2022/06/05 21:43:15;;;;;;;12.50;5.00;;;;;;;20.74;64.27;99463.31;10372040;28;20195;-77
2022/06/05 21:48:16;;;;;;;14.50;4.80;;;;;;;20.87;64.11;99514.16;10374713;28;20037;-77
2022/06/05 21:53:23;;;;;;;12.90;4.95;;;;;;;20.78;63.99;99513.00;10379258;28;20084;-77
2022/06/05 21:58:24;;;;;;;17.88;6.72;;;;;;;20.00;64.42;99388.38;10379705;28;20038;-77
2022/06/05 22:03:29;;;;;;;14.65;5.68;;;;;;;20.65;65.25;99498.03;10380086;28;20048;-78
2022/06/05 22:08:33;;;;;;;11.23;5.38;;;;;;;20.26;65.14;99463.09;10380284;28;20049;-77
2022/06/05 22:13:34;;;;;;;13.70;5.55;;;;;;;20.22;65.32;99480.00;10378493;28;20402;-77
2022/06/05 22:18:35;;;;;;;16.65;5.28;;;;;;;20.27;65.77;99513.25;10379035;28;20053;-77
2022/06/05 22:23:36;;;;;;;12.40;5.60;;;;;;;19.70;66.02;99415.78;10378241;28;20049;-77
2022/06/05 22:28:37;;;;;;;15.15;5.93;;;;;;;20.25;66.74;99506.47;10378092;28;20502;-77
2022/06/05 22:33:39;;;;;;;12.40;4.95;;;;;;;20.24;66.61;99497.56;10378146;28;20065;-77
2022/06/05 22:38:40;;;;;;;14.70;5.50;;;;;;;19.42;66.89;99379.84;10378739;28;20111;-77
2022/06/05 22:43:41;;;;;;;12.18;5.28;;;;;;;19.92;66.92;99469.66;10378612;28;20045;-77
2022/06/05 22:48:41;;;;;;;18.90;5.55;;;;;;;19.05;67.31;99328.44;10377810;28;20042;-77
2022/06/05 22:53:42;;;;;;;13.90;5.90;;;;;;;19.88;67.40;99461.28;10377835;28;20046;-77
2022/06/05 22:58:43;;;;;;;15.30;6.28;;;;;;;19.94;67.66;99462.16;10376762;28;20049;-77
2022/06/05 23:03:44;;;;;;;24.02;6.70;;;;;;;19.66;68.41;99420.06;10377695;28;20040;-78
2022/06/05 23:08:45;;;;;;;16.25;5.93;;;;;;;19.38;68.05;99382.22;10376412;28;20045;-77
2022/06/05 23:13:53;;;;;;;20.17;6.85;;;;;;;19.86;69.93;99466.09;10377436;28;20057;-77
2022/06/05 23:24:15;;;;;;;14.45;7.18;;;;;;;19.66;69.39;99445.13;10376609;28;20042;-77
2022/06/05 23:29:15;;;;;;;12.48;7.07;;;;;;;18.57;69.44;99263.44;10376169;28;20120;-77
2022/06/05 23:34:18;;;;;;;26.55;7.30;;;;;;;19.69;69.47;99463.47;10375401;28;20140;-77
2022/06/05 23:39:20;;;;;;;15.13;6.20;;;;;;;19.05;70.05;99377.69;10374077;28;20038;-77
2022/06/05 23:44:22;;;;;;;15.75;6.90;;;;;;;19.22;70.65;99412.69;10375939;28;20041;-77
2022/06/05 23:49:26;;;;;;;16.05;6.55;;;;;;;19.27;70.33;99423.53;10375202;28;20041;-77
2022/06/05 23:54:27;;;;;;;13.98;6.38;;;;;;;19.54;70.55;99472.13;10374007;28;20080;-77
2022/06/05 23:59:28;;;;;;;14.38;6.80;;;;;;;19.37;70.72;99441.72;10374464;28;20116;-77
